sensor_id;sensor_type;location;lat;lon;timestamp;pressure;altitude;pressure_sealevel;temperature;humidity
72794;BME280;63436;26.334;50.194;2023-01-19T00:01:59;61397.39;;;17.01;65.05
72794;BME280;63436;26.334;50.194;2023-01-19T00:04:25;61397.39;;;17.48;65.05
72794;BME280;63436;26.334;50.194;2023-01-19T00:06:50;61397.39;;;17.25;65.05
72794;BME280;63436;26.334;50.194;2023-01-19T00:09:15;61397.39;;;17.48;65.05
72794;BME280;63436;26.334;50.194;2023-01-19T00:11:41;61397.39;;;17.48;65.05
72794;BME280;63436;26.334;50.194;2023-01-19T00:14:07;61397.39;;;17.48;65.05
72794;BME280;63436;26.334;50.194;2023-01-19T00:16:31;61397.39;;;17.72;65.05
72794;BME280;63436;26.334;50.194;2023-01-19T00:18:58;61397.39;;;17.48;65.05
72794;BME280;63436;26.334;50.194;2023-01-19T00:21:23;61397.39;;;17.48;65.05
72794;BME280;63436;26.334;50.194;2023-01-19T00:23:48;61397.39;;;17.96;65.05
72794;BME280;63436;26.334;50.194;2023-01-19T00:26:19;61397.39;;;17.72;65.05
72794;BME280;63436;26.334;50.194;2023-01-19T00:28:39;61397.39;;;17.72;65.05
72794;BME280;63436;26.334;50.194;2023-01-19T00:31:04;61397.39;;;17.48;65.05
72794;BME280;63436;26.334;50.194;2023-01-19T00:33:29;61397.39;;;17.72;65.05
72794;BME280;63436;26.334;50.194;2023-01-19T00:35:55;61397.39;;;17.72;65.05
72794;BME280;63436;26.334;50.194;2023-01-19T00:38:20;61397.39;;;17.72;65.05
72794;BME280;63436;26.334;50.194;2023-01-19T00:40:45;61397.39;;;17.96;65.05
72794;BME280;63436;26.334;50.194;2023-01-19T00:43:11;61397.39;;;17.48;65.05
72794;BME280;63436;26.334;50.194;2023-01-19T00:45:36;61397.39;;;17.96;65.05
72794;BME280;63436;26.334;50.194;2023-01-19T00:48:02;61397.39;;;17.96;65.05
72794;BME280;63436;26.334;50.194;2023-01-19T00:50:29;61397.39;;;17.96;65.05
72794;BME280;63436;26.334;50.194;2023-01-19T00:52:53;61397.39;;;17.96;65.05
72794;BME280;63436;26.334;50.194;2023-01-19T00:55:18;61397.39;;;17.96;65.05
72794;BME280;63436;26.334;50.194;2023-01-19T00:57:43;61397.39;;;17.96;65.05
72794;BME280;63436;26.334;50.194;2023-01-19T01:00:11;61397.39;;;17.72;65.05
72794;BME280;63436;26.334;50.194;2023-01-19T01:02:34;61397.39;;;17.72;65.05
72794;BME280;63436;26.334;50.194;2023-01-19T01:05:00;61397.39;;;17.72;65.05
72794;BME280;63436;26.334;50.194;2023-01-19T01:07:26;61397.39;;;17.72;65.05
72794;BME280;63436;26.334;50.194;2023-01-19T01:09:51;61397.39;;;17.96;65.05
72794;BME280;63436;26.334;50.194;2023-01-19T01:12:17;61397.39;;;17.96;65.05
72794;BME280;63436;26.334;50.194;2023-01-19T01:14:42;61397.39;;;17.96;65.05
72794;BME280;63436;26.334;50.194;2023-01-19T01:17:08;61397.39;;;17.72;65.05
72794;BME280;63436;26.334;50.194;2023-01-19T01:19:33;61397.39;;;17.96;65.05
72794;BME280;63436;26.334;50.194;2023-01-19T01:21:58;61397.39;;;18.20;65.05
72794;BME280;63436;26.334;50.194;2023-01-19T01:24:23;61397.39;;;17.72;65.05
72794;BME280;63436;26.334;50.194;2023-01-19T01:26:49;61397.39;;;17.96;65.05
72794;BME280;63436;26.334;50.194;2023-01-19T01:29:14;61397.39;;;17.72;65.05
72794;BME280;63436;26.334;50.194;2023-01-19T01:31:40;61397.39;;;17.72;65.05
72794;BME280;63436;26.334;50.194;2023-01-19T01:34:06;61397.39;;;17.48;65.05
72794;BME280;63436;26.334;50.194;2023-01-19T01:36:31;61397.39;;;17.72;65.05
72794;BME280;63436;26.334;50.194;2023-01-19T01:38:56;61397.39;;;17.72;65.05
72794;BME280;63436;26.334;50.194;2023-01-19T01:41:22;61397.39;;;17.72;65.05
72794;BME280;63436;26.334;50.194;2023-01-19T01:43:50;61397.39;;;17.48;65.05
72794;BME280;63436;26.334;50.194;2023-01-19T01:46:14;61397.39;;;17.72;65.05
72794;BME280;63436;26.334;50.194;2023-01-19T01:48:41;61397.39;;;17.96;65.05
72794;BME280;63436;26.334;50.194;2023-01-19T01:51:07;61397.39;;;17.96;65.05
72794;BME280;63436;26.334;50.194;2023-01-19T01:53:32;61397.39;;;17.48;65.05
72794;BME280;63436;26.334;50.194;2023-01-19T01:55:56;61397.39;;;17.96;65.05
72794;BME280;63436;26.334;50.194;2023-01-19T01:58:22;61397.39;;;17.72;65.05
72794;BME280;63436;26.334;50.194;2023-01-19T02:00:46;61397.39;;;17.72;65.05
72794;BME280;63436;26.334;50.194;2023-01-19T02:03:12;61397.39;;;17.72;65.05
72794;BME280;63436;26.334;50.194;2023-01-19T02:05:37;61397.39;;;17.96;65.05
72794;BME280;63436;26.334;50.194;2023-01-19T02:08:07;61397.39;;;17.48;65.05
72794;BME280;63436;26.334;50.194;2023-01-19T02:10:29;61397.39;;;17.72;65.05
72794;BME280;63436;26.334;50.194;2023-01-19T02:12:54;61397.39;;;17.96;65.05
72794;BME280;63436;26.334;50.194;2023-01-19T02:15:20;61397.39;;;17.96;65.05
72794;BME280;63436;26.334;50.194;2023-01-19T02:17:45;61397.39;;;17.72;65.05
72794;BME280;63436;26.334;50.194;2023-01-19T02:20:10;61397.39;;;17.72;65.05
72794;BME280;63436;26.334;50.194;2023-01-19T02:22:43;61397.39;;;17.48;65.05
72794;BME280;63436;26.334;50.194;2023-01-19T02:25:01;61397.39;;;17.48;65.05
72794;BME280;63436;26.334;50.194;2023-01-19T02:27:26;61397.39;;;17.96;65.05
72794;BME280;63436;26.334;50.194;2023-01-19T02:29:51;61397.39;;;17.96;65.05
72794;BME280;63436;26.334;50.194;2023-01-19T02:32:17;61397.39;;;17.96;65.05
72794;BME280;63436;26.334;50.194;2023-01-19T02:34:43;61397.39;;;18.20;65.05
72794;BME280;63436;26.334;50.194;2023-01-19T02:37:11;61397.39;;;17.96;65.05
72794;BME280;63436;26.334;50.194;2023-01-19T02:39:37;61397.39;;;17.96;65.05
72794;BME280;63436;26.334;50.194;2023-01-19T02:42:02;61397.39;;;17.96;65.05
72794;BME280;63436;26.334;50.194;2023-01-19T02:44:25;61397.39;;;17.96;65.05
72794;BME280;63436;26.334;50.194;2023-01-19T02:46:52;61397.39;;;17.96;65.05
72794;BME280;63436;26.334;50.194;2023-01-19T02:49:15;61397.39;;;18.20;65.05
72794;BME280;63436;26.334;50.194;2023-01-19T02:51:43;61397.39;;;17.96;65.05
72794;BME280;63436;26.334;50.194;2023-01-19T02:54:17;61397.39;;;18.20;65.05
72794;BME280;63436;26.334;50.194;2023-01-19T02:56:43;61397.39;;;18.44;65.05
72794;BME280;63436;26.334;50.194;2023-01-19T02:59:03;61397.39;;;17.96;65.05
72794;BME280;63436;26.334;50.194;2023-01-19T03:01:30;61397.39;;;18.20;65.05
72794;BME280;63436;26.334;50.194;2023-01-19T03:03:53;61397.39;;;17.96;65.05
72794;BME280;63436;26.334;50.194;2023-01-19T03:06:18;61397.39;;;17.96;65.05
72794;BME280;63436;26.334;50.194;2023-01-19T03:08:45;61397.39;;;18.44;65.05
72794;BME280;63436;26.334;50.194;2023-01-19T03:11:05;61397.39;;;17.96;65.05
72794;BME280;63436;26.334;50.194;2023-01-19T03:13:36;61397.39;;;17.96;65.05
72794;BME280;63436;26.334;50.194;2023-01-19T03:15:57;61397.39;;;17.96;65.05
72794;BME280;63436;26.334;50.194;2023-01-19T03:18:23;61397.39;;;17.96;65.05
72794;BME280;63436;26.334;50.194;2023-01-19T03:20:47;61397.39;;;17.72;65.05
72794;BME280;63436;26.334;50.194;2023-01-19T03:23:11;61397.39;;;17.96;65.05
72794;BME280;63436;26.334;50.194;2023-01-19T03:25:38;61397.39;;;17.96;65.05
72794;BME280;63436;26.334;50.194;2023-01-19T03:28:03;61397.39;;;17.96;65.05
72794;BME280;63436;26.334;50.194;2023-01-19T03:30:30;61397.39;;;17.48;65.05
72794;BME280;63436;26.334;50.194;2023-01-19T03:32:57;61397.39;;;17.72;65.05
72794;BME280;63436;26.334;50.194;2023-01-19T03:35:22;61397.39;;;17.72;65.05
72794;BME280;63436;26.334;50.194;2023-01-19T03:37:45;61397.39;;;17.72;65.05
72794;BME280;63436;26.334;50.194;2023-01-19T03:40:10;61397.39;;;17.48;65.05
72794;BME280;63436;26.334;50.194;2023-01-19T03:42:36;61397.39;;;17.48;65.05
72794;BME280;63436;26.334;50.194;2023-01-19T03:45:02;61397.39;;;17.48;65.05
72794;BME280;63436;26.334;50.194;2023-01-19T03:47:26;61397.39;;;17.72;65.05
72794;BME280;63436;26.334;50.194;2023-01-19T03:49:52;61397.39;;;17.96;65.05
72794;BME280;63436;26.334;50.194;2023-01-19T03:52:17;61397.39;;;17.96;65.05
72794;BME280;63436;26.334;50.194;2023-01-19T03:54:42;61397.39;;;17.96;65.05
72794;BME280;63436;26.334;50.194;2023-01-19T03:57:07;61397.39;;;17.72;65.05
72794;BME280;63436;26.334;50.194;2023-01-19T03:59:32;61397.39;;;17.72;65.05
72794;BME280;63436;26.334;50.194;2023-01-19T04:01:58;61397.39;;;17.48;65.05
72794;BME280;63436;26.334;50.194;2023-01-19T04:04:23;61397.39;;;17.96;65.05
72794;BME280;63436;26.334;50.194;2023-01-19T04:06:49;61397.39;;;17.96;65.05
72794;BME280;63436;26.334;50.194;2023-01-19T04:09:15;61397.39;;;17.96;65.05
72794;BME280;63436;26.334;50.194;2023-01-19T04:11:40;61397.39;;;17.72;65.05
72794;BME280;63436;26.334;50.194;2023-01-19T04:14:05;61397.39;;;17.48;65.05
72794;BME280;63436;26.334;50.194;2023-01-19T04:16:31;61397.39;;;17.72;65.05
72794;BME280;63436;26.334;50.194;2023-01-19T04:18:56;61397.39;;;17.72;65.05
72794;BME280;63436;26.334;50.194;2023-01-19T04:21:22;61397.39;;;17.96;65.05
72794;BME280;63436;26.334;50.194;2023-01-19T04:23:48;61397.39;;;17.96;65.05
72794;BME280;63436;26.334;50.194;2023-01-19T04:26:13;61397.39;;;17.96;65.05
72794;BME280;63436;26.334;50.194;2023-01-19T04:28:44;61397.39;;;17.96;65.05
72794;BME280;63436;26.334;50.194;2023-01-19T04:31:06;61397.39;;;17.96;65.05
72794;BME280;63436;26.334;50.194;2023-01-19T04:33:30;61397.39;;;17.72;65.05
72794;BME280;63436;26.334;50.194;2023-01-19T04:35:56;61397.39;;;17.48;65.05
72794;BME280;63436;26.334;50.194;2023-01-19T04:38:21;61397.39;;;17.72;65.05
72794;BME280;63436;26.334;50.194;2023-01-19T04:40:47;61397.39;;;17.48;65.05
72794;BME280;63436;26.334;50.194;2023-01-19T04:43:11;61397.39;;;17.72;65.05
72794;BME280;63436;26.334;50.194;2023-01-19T04:45:36;61397.39;;;17.72;65.05
72794;BME280;63436;26.334;50.194;2023-01-19T04:48:03;61397.39;;;17.96;65.05
72794;BME280;63436;26.334;50.194;2023-01-19T04:50:28;61397.39;;;17.96;65.05
72794;BME280;63436;26.334;50.194;2023-01-19T04:52:54;61397.39;;;17.96;65.05
72794;BME280;63436;26.334;50.194;2023-01-19T04:55:19;61397.39;;;17.96;65.05
72794;BME280;63436;26.334;50.194;2023-01-19T04:57:45;61397.39;;;17.72;65.05
72794;BME280;63436;26.334;50.194;2023-01-19T05:00:11;61397.39;;;17.72;65.05
72794;BME280;63436;26.334;50.194;2023-01-19T05:02:37;61397.39;;;17.96;65.05
72794;BME280;63436;26.334;50.194;2023-01-19T05:05:01;61397.39;;;17.72;65.05
72794;BME280;63436;26.334;50.194;2023-01-19T05:07:26;61397.39;;;17.48;65.05
72794;BME280;63436;26.334;50.194;2023-01-19T05:09:51;61397.39;;;17.48;65.05
72794;BME280;63436;26.334;50.194;2023-01-19T05:12:17;61397.39;;;17.72;65.05
72794;BME280;63436;26.334;50.194;2023-01-19T05:14:42;61397.39;;;17.48;65.05
72794;BME280;63436;26.334;50.194;2023-01-19T05:17:08;61397.39;;;17.96;65.05
72794;BME280;63436;26.334;50.194;2023-01-19T05:19:33;61397.39;;;17.48;65.05
72794;BME280;63436;26.334;50.194;2023-01-19T05:21:59;61397.39;;;17.72;65.05
72794;BME280;63436;26.334;50.194;2023-01-19T05:24:24;61397.39;;;17.96;65.05
72794;BME280;63436;26.334;50.194;2023-01-19T05:26:49;61397.39;;;18.20;65.05
72794;BME280;63436;26.334;50.194;2023-01-19T05:29:15;61397.39;;;18.44;65.05
72794;BME280;63436;26.334;50.194;2023-01-19T05:31:41;61397.39;;;18.44;65.05
72794;BME280;63436;26.334;50.194;2023-01-19T05:34:05;61397.39;;;18.20;65.05
72794;BME280;63436;26.334;50.194;2023-01-19T05:36:30;61397.39;;;18.20;65.05
72794;BME280;63436;26.334;50.194;2023-01-19T05:38:56;61397.39;;;17.96;65.05
72794;BME280;63436;26.334;50.194;2023-01-19T05:41:21;61397.39;;;18.20;65.05
72794;BME280;63436;26.334;50.194;2023-01-19T05:43:47;61397.39;;;17.96;65.05
72794;BME280;63436;26.334;50.194;2023-01-19T05:46:12;61397.39;;;17.96;65.05
72794;BME280;63436;26.334;50.194;2023-01-19T05:48:38;61397.39;;;17.96;65.05
72794;BME280;63436;26.334;50.194;2023-01-19T05:51:03;61397.39;;;17.96;65.05
72794;BME280;63436;26.334;50.194;2023-01-19T05:53:28;61397.39;;;17.48;65.05
72794;BME280;63436;26.334;50.194;2023-01-19T05:55:59;61397.39;;;17.72;65.05
72794;BME280;63436;26.334;50.194;2023-01-19T05:58:20;61397.39;;;17.25;65.05
72794;BME280;63436;26.334;50.194;2023-01-19T06:00:45;61397.39;;;17.25;65.05
72794;BME280;63436;26.334;50.194;2023-01-19T06:03:11;61397.39;;;17.48;65.05
72794;BME280;63436;26.334;50.194;2023-01-19T06:05:36;61397.39;;;17.48;65.05
72794;BME280;63436;26.334;50.194;2023-01-19T06:08:02;61397.39;;;17.72;65.05
72794;BME280;63436;26.334;50.194;2023-01-19T06:10:27;61397.39;;;17.25;65.05
72794;BME280;63436;26.334;50.194;2023-01-19T06:12:53;61397.39;;;17.48;65.05
72794;BME280;63436;26.334;50.194;2023-01-19T06:15:18;61397.39;;;17.25;65.05
72794;BME280;63436;26.334;50.194;2023-01-19T06:17:43;61397.39;;;17.25;65.05
72794;BME280;63436;26.334;50.194;2023-01-19T06:20:11;61397.39;;;17.01;65.05
72794;BME280;63436;26.334;50.194;2023-01-19T06:22:35;61397.39;;;17.48;65.05
72794;BME280;63436;26.334;50.194;2023-01-19T06:25:00;61397.39;;;17.01;65.05
72794;BME280;63436;26.334;50.194;2023-01-19T06:27:25;61397.39;;;17.25;65.05
72794;BME280;63436;26.334;50.194;2023-01-19T06:29:51;61397.39;;;17.48;65.05
72794;BME280;63436;26.334;50.194;2023-01-19T06:32:17;61397.39;;;17.25;65.05
72794;BME280;63436;26.334;50.194;2023-01-19T06:34:42;61397.39;;;17.48;65.05
72794;BME280;63436;26.334;50.194;2023-01-19T06:37:07;61397.39;;;17.25;65.05
72794;BME280;63436;26.334;50.194;2023-01-19T06:39:33;61397.39;;;17.48;65.05
72794;BME280;63436;26.334;50.194;2023-01-19T06:41:58;61397.39;;;17.01;65.05
72794;BME280;63436;26.334;50.194;2023-01-19T06:44:23;61397.39;;;17.25;65.05
72794;BME280;63436;26.334;50.194;2023-01-19T06:46:49;61397.39;;;17.01;65.05
72794;BME280;63436;26.334;50.194;2023-01-19T06:49:14;61397.39;;;17.01;65.05
72794;BME280;63436;26.334;50.194;2023-01-19T06:51:39;61397.39;;;17.01;65.05
72794;BME280;63436;26.334;50.194;2023-01-19T06:54:04;61397.39;;;17.25;65.05
72794;BME280;63436;26.334;50.194;2023-01-19T06:56:30;61397.39;;;17.48;65.05
72794;BME280;63436;26.334;50.194;2023-01-19T06:58:55;61397.39;;;17.25;65.05
72794;BME280;63436;26.334;50.194;2023-01-19T07:01:20;61397.39;;;17.01;65.05
72794;BME280;63436;26.334;50.194;2023-01-19T07:03:45;61397.39;;;16.77;65.05
72794;BME280;63436;26.334;50.194;2023-01-19T07:06:11;61397.39;;;16.77;65.05
72794;BME280;63436;26.334;50.194;2023-01-19T07:08:37;61397.39;;;16.53;65.05
72794;BME280;63436;26.334;50.194;2023-01-19T07:11:04;61397.39;;;16.77;65.05
72794;BME280;63436;26.334;50.194;2023-01-19T07:13:28;61397.39;;;16.29;65.05
72794;BME280;63436;26.334;50.194;2023-01-19T07:15:53;61397.39;;;16.29;65.05
72794;BME280;63436;26.334;50.194;2023-01-19T07:18:18;61397.39;;;16.77;65.05
72794;BME280;63436;26.334;50.194;2023-01-19T07:20:44;61397.39;;;16.53;65.05
72794;BME280;63436;26.334;50.194;2023-01-19T07:23:10;61397.39;;;17.01;65.05
72794;BME280;63436;26.334;50.194;2023-01-19T07:25:36;61397.39;;;17.01;65.05
72794;BME280;63436;26.334;50.194;2023-01-19T07:28:02;61397.39;;;17.01;65.05
72794;BME280;63436;26.334;50.194;2023-01-19T07:30:27;61397.39;;;16.77;65.05
72794;BME280;63436;26.334;50.194;2023-01-19T07:32:54;61397.39;;;16.77;65.05
72794;BME280;63436;26.334;50.194;2023-01-19T07:35:17;61397.39;;;16.53;65.05
72794;BME280;63436;26.334;50.194;2023-01-19T07:37:43;61397.39;;;16.29;65.05
72794;BME280;63436;26.334;50.194;2023-01-19T07:40:09;61397.39;;;16.29;65.05
72794;BME280;63436;26.334;50.194;2023-01-19T07:42:34;61397.39;;;16.53;65.05
72794;BME280;63436;26.334;50.194;2023-01-19T07:45:00;61397.39;;;16.53;65.05
72794;BME280;63436;26.334;50.194;2023-01-19T07:47:25;61397.39;;;16.05;65.05
72794;BME280;63436;26.334;50.194;2023-01-19T07:49:51;61397.39;;;16.05;65.05
72794;BME280;63436;26.334;50.194;2023-01-19T07:52:16;61397.39;;;16.05;65.05
72794;BME280;63436;26.334;50.194;2023-01-19T07:54:42;61397.39;;;16.05;65.05
72794;BME280;63436;26.334;50.194;2023-01-19T07:57:07;61397.39;;;16.05;65.05
72794;BME280;63436;26.334;50.194;2023-01-19T07:59:33;61397.39;;;16.05;65.05
72794;BME280;63436;26.334;50.194;2023-01-19T08:02:03;61397.39;;;15.57;65.05
72794;BME280;63436;26.334;50.194;2023-01-19T08:04:24;61397.39;;;16.05;65.05
72794;BME280;63436;26.334;50.194;2023-01-19T08:06:50;61397.39;;;16.05;65.05
72794;BME280;63436;26.334;50.194;2023-01-19T08:09:15;61397.39;;;15.81;65.05
72794;BME280;63436;26.334;50.194;2023-01-19T08:11:41;61397.39;;;15.81;65.05
72794;BME280;63436;26.334;50.194;2023-01-19T08:14:07;61397.39;;;16.05;65.05
72794;BME280;63436;26.334;50.194;2023-01-19T08:16:32;61397.39;;;16.05;65.05
72794;BME280;63436;26.334;50.194;2023-01-19T08:18:57;61397.39;;;15.81;65.05
72794;BME280;63436;26.334;50.194;2023-01-19T08:21:23;61397.39;;;15.81;65.05
72794;BME280;63436;26.334;50.194;2023-01-19T08:23:52;61397.39;;;16.05;65.05
72794;BME280;63436;26.334;50.194;2023-01-19T08:26:21;61397.39;;;15.57;65.05
72794;BME280;63436;26.334;50.194;2023-01-19T08:28:39;61397.39;;;15.57;65.05
72794;BME280;63436;26.334;50.194;2023-01-19T08:31:05;61397.39;;;15.81;65.05
72794;BME280;63436;26.334;50.194;2023-01-19T08:33:30;61397.39;;;15.57;65.05
72794;BME280;63436;26.334;50.194;2023-01-19T08:35:56;61397.39;;;15.57;65.05
72794;BME280;63436;26.334;50.194;2023-01-19T08:38:21;61397.39;;;15.57;65.05
72794;BME280;63436;26.334;50.194;2023-01-19T08:40:48;61397.39;;;15.33;65.05
72794;BME280;63436;26.334;50.194;2023-01-19T08:43:14;61397.39;;;15.57;65.05
72794;BME280;63436;26.334;50.194;2023-01-19T08:45:39;61397.39;;;15.33;65.05
72794;BME280;63436;26.334;50.194;2023-01-19T08:48:04;61397.39;;;15.09;65.05
72794;BME280;63436;26.334;50.194;2023-01-19T08:50:30;61397.39;;;15.09;65.05
72794;BME280;63436;26.334;50.194;2023-01-19T08:52:55;61397.39;;;15.57;65.05
72794;BME280;63436;26.334;50.194;2023-01-19T08:55:20;61397.39;;;15.57;65.05
72794;BME280;63436;26.334;50.194;2023-01-19T08:57:45;61397.39;;;15.09;65.05
72794;BME280;63436;26.334;50.194;2023-01-19T09:00:12;61397.39;;;15.57;65.05
72794;BME280;63436;26.334;50.194;2023-01-19T09:02:37;61397.39;;;15.33;65.05
72794;BME280;63436;26.334;50.194;2023-01-19T09:05:01;61397.39;;;15.33;65.05
72794;BME280;63436;26.334;50.194;2023-01-19T09:07:27;61397.39;;;15.81;65.05
72794;BME280;63436;26.334;50.194;2023-01-19T09:09:53;61397.39;;;15.81;65.05
72794;BME280;63436;26.334;50.194;2023-01-19T09:12:18;61397.39;;;15.81;65.05
72794;BME280;63436;26.334;50.194;2023-01-19T09:14:43;61397.39;;;15.81;65.05
72794;BME280;63436;26.334;50.194;2023-01-19T09:17:10;61397.39;;;15.81;65.05
72794;BME280;63436;26.334;50.194;2023-01-19T09:19:35;61397.39;;;15.81;65.05
72794;BME280;63436;26.334;50.194;2023-01-19T09:22:00;61397.39;;;16.05;65.05
72794;BME280;63436;26.334;50.194;2023-01-19T09:24:25;61397.39;;;15.33;65.05
72794;BME280;63436;26.334;50.194;2023-01-19T09:26:51;61397.39;;;15.33;65.05
72794;BME280;63436;26.334;50.194;2023-01-19T09:29:16;61397.39;;;15.09;65.05
72794;BME280;63436;26.334;50.194;2023-01-19T09:31:42;61397.39;;;15.33;65.05
72794;BME280;63436;26.334;50.194;2023-01-19T09:34:08;61397.39;;;15.09;65.05
72794;BME280;63436;26.334;50.194;2023-01-19T09:36:33;61397.39;;;15.09;65.05
72794;BME280;63436;26.334;50.194;2023-01-19T09:38:59;61397.39;;;15.09;65.05
72794;BME280;63436;26.334;50.194;2023-01-19T09:41:24;61397.39;;;14.85;65.05
72794;BME280;63436;26.334;50.194;2023-01-19T09:43:53;61397.39;;;14.85;65.05
72794;BME280;63436;26.334;50.194;2023-01-19T09:46:18;61397.39;;;15.09;65.05
72794;BME280;63436;26.334;50.194;2023-01-19T09:48:44;61397.39;;;15.09;65.05
72794;BME280;63436;26.334;50.194;2023-01-19T09:51:09;61397.39;;;15.33;65.05
72794;BME280;63436;26.334;50.194;2023-01-19T09:53:42;61397.39;;;15.57;65.05
72794;BME280;63436;26.334;50.194;2023-01-19T09:55:57;61397.39;;;15.57;65.05
72794;BME280;63436;26.334;50.194;2023-01-19T09:58:22;61397.39;;;15.09;65.05
72794;BME280;63436;26.334;50.194;2023-01-19T10:00:51;61397.39;;;15.09;65.05
72794;BME280;63436;26.334;50.194;2023-01-19T10:03:14;61397.39;;;14.85;65.05
72794;BME280;63436;26.334;50.194;2023-01-19T10:05:44;61397.39;;;15.09;65.05
72794;BME280;63436;26.334;50.194;2023-01-19T10:08:13;61397.39;;;15.09;65.05
72794;BME280;63436;26.334;50.194;2023-01-19T10:10:30;61397.39;;;15.09;65.05
72794;BME280;63436;26.334;50.194;2023-01-19T10:13:07;61397.39;;;15.09;65.05
72794;BME280;63436;26.334;50.194;2023-01-19T10:15:29;61397.39;;;15.09;65.05
72794;BME280;63436;26.334;50.194;2023-01-19T10:17:52;61397.39;;;15.57;65.05
72794;BME280;63436;26.334;50.194;2023-01-19T10:22:37;61397.39;;;15.33;65.05
72794;BME280;63436;26.334;50.194;2023-01-19T10:25:03;61397.39;;;15.09;65.05
72794;BME280;63436;26.334;50.194;2023-01-19T10:27:29;61397.39;;;14.85;65.05
72794;BME280;63436;26.334;50.194;2023-01-19T10:29:53;61397.39;;;14.85;65.05
72794;BME280;63436;26.334;50.194;2023-01-19T10:32:20;61397.39;;;14.62;65.05
72794;BME280;63436;26.334;50.194;2023-01-19T10:34:54;61397.39;;;14.85;65.05
72794;BME280;63436;26.334;50.194;2023-01-19T10:39:42;61397.39;;;15.09;65.05
72794;BME280;63436;26.334;50.194;2023-01-19T10:44:28;61397.39;;;14.85;65.05
72794;BME280;63436;26.334;50.194;2023-01-19T10:46:53;61397.39;;;15.09;65.05
72794;BME280;63436;26.334;50.194;2023-01-19T10:49:25;61397.39;;;15.09;65.05
72794;BME280;63436;26.334;50.194;2023-01-19T10:51:46;61397.39;;;15.09;65.05
72794;BME280;63436;26.334;50.194;2023-01-19T10:54:11;61397.39;;;14.85;65.05
72794;BME280;63436;26.334;50.194;2023-01-19T10:56:35;61397.39;;;14.62;65.05
72794;BME280;63436;26.334;50.194;2023-01-19T10:59:01;61397.39;;;14.85;65.05
72794;BME280;63436;26.334;50.194;2023-01-19T11:01:26;61397.39;;;14.85;65.05
72794;BME280;63436;26.334;50.194;2023-01-19T11:03:51;61397.39;;;14.85;65.05
72794;BME280;63436;26.334;50.194;2023-01-19T11:06:25;61397.39;;;14.62;65.05
72794;BME280;63436;26.334;50.194;2023-01-19T11:11:14;61397.39;;;14.62;65.05
72794;BME280;63436;26.334;50.194;2023-01-19T11:13:33;61397.39;;;14.14;65.05
72794;BME280;63436;26.334;50.194;2023-01-19T11:16:03;61397.39;;;14.14;65.05
72794;BME280;63436;26.334;50.194;2023-01-19T11:18:27;61397.39;;;13.90;65.05
72794;BME280;63436;26.334;50.194;2023-01-19T11:20:51;61397.39;;;14.14;65.05
72794;BME280;63436;26.334;50.194;2023-01-19T11:23:23;61397.39;;;13.90;65.05
72794;BME280;63436;26.334;50.194;2023-01-19T11:25:44;61397.39;;;13.66;65.05
72794;BME280;63436;26.334;50.194;2023-01-19T11:28:15;61397.39;;;13.66;65.05
72794;BME280;63436;26.334;50.194;2023-01-19T11:30:31;61397.39;;;13.90;65.05
72794;BME280;63436;26.334;50.194;2023-01-19T11:32:56;61397.39;;;14.14;65.05
72794;BME280;63436;26.334;50.194;2023-01-19T11:35:33;61397.39;;;14.38;65.05
72794;BME280;63436;26.334;50.194;2023-01-19T11:37:47;61397.39;;;14.62;65.05
72794;BME280;63436;26.334;50.194;2023-01-19T11:40:15;61397.39;;;14.62;65.05
72794;BME280;63436;26.334;50.194;2023-01-19T11:42:38;61397.39;;;14.85;65.05
72794;BME280;63436;26.334;50.194;2023-01-19T11:45:09;61397.39;;;14.62;65.05
72794;BME280;63436;26.334;50.194;2023-01-19T11:47:33;61397.39;;;14.62;65.05
72794;BME280;63436;26.334;50.194;2023-01-19T11:49:58;61397.39;;;14.38;65.05
72794;BME280;63436;26.334;50.194;2023-01-19T11:52:25;61397.39;;;14.14;65.05
72794;BME280;63436;26.334;50.194;2023-01-19T11:54:53;61397.39;;;14.14;65.05
72794;BME280;63436;26.334;50.194;2023-01-19T11:57:12;61397.39;;;14.14;65.05
72794;BME280;63436;26.334;50.194;2023-01-19T11:59:36;61397.39;;;14.14;65.05
72794;BME280;63436;26.334;50.194;2023-01-19T12:02:10;61397.39;;;14.14;65.05
72794;BME280;63436;26.334;50.194;2023-01-19T12:04:30;61397.39;;;14.14;65.05
72794;BME280;63436;26.334;50.194;2023-01-19T12:06:53;61397.39;;;14.14;65.05
72794;BME280;63436;26.334;50.194;2023-01-19T12:09:19;61397.39;;;14.14;65.05
72794;BME280;63436;26.334;50.194;2023-01-19T12:11:47;61397.39;;;13.90;65.05
72794;BME280;63436;26.334;50.194;2023-01-19T12:14:14;61397.39;;;14.14;65.05
72794;BME280;63436;26.334;50.194;2023-01-19T12:16:33;61397.39;;;14.14;65.05
72794;BME280;63436;26.334;50.194;2023-01-19T12:19:00;61397.39;;;14.14;65.05
72794;BME280;63436;26.334;50.194;2023-01-19T12:21:24;61397.39;;;14.14;65.05
72794;BME280;63436;26.334;50.194;2023-01-19T12:23:58;61397.39;;;14.38;65.05
72794;BME280;63436;26.334;50.194;2023-01-19T12:26:23;61397.39;;;14.62;65.05
72794;BME280;63436;26.334;50.194;2023-01-19T12:28:42;61397.39;;;14.62;65.05
72794;BME280;63436;26.334;50.194;2023-01-19T12:31:06;61397.39;;;14.38;65.05
72794;BME280;63436;26.334;50.194;2023-01-19T12:33:32;61397.39;;;14.62;65.05
72794;BME280;63436;26.334;50.194;2023-01-19T12:35:58;61397.39;;;14.38;65.05
72794;BME280;63436;26.334;50.194;2023-01-19T12:40:47;61397.39;;;14.14;65.05
72794;BME280;63436;26.334;50.194;2023-01-19T12:43:15;61397.39;;;14.14;65.05
72794;BME280;63436;26.334;50.194;2023-01-19T12:45:38;61397.39;;;14.14;65.05
72794;BME280;63436;26.334;50.194;2023-01-19T12:48:04;61397.39;;;14.14;65.05
72794;BME280;63436;26.334;50.194;2023-01-19T12:50:32;61397.39;;;14.62;65.05
72794;BME280;63436;26.334;50.194;2023-01-19T12:52:56;61397.39;;;14.62;65.05